Portada
METAR-TAF:

METAR-TAF

Aeroports :

Komatsu, Japó

latitud: 36-23N, longitud: 136-25E, altitud: 6 m

Observació

L'informe es va fer fa 56 minuts, a les 16:00 UTC
Vent 3 kt del Sud/Sud-Est
Temperatura 15°C
Humitat 94%
Pressió 1015 hPa
Visibilitat 10 km o més
Escasses núvols a una alçada de 4000 ft

METAR: RJNK 221600Z 15003KT 9999 FEW040 15/14 Q1015

Hora: 01:56 (16:56 UTC)

Pronòstic

L'informe es va fer fa 5 hores i 51 minuts, a les 11:05 UTC
Pronòstic vàlid del 22 a les 12 UTC al 23 a les 18 UTC
Vent 4 kt del Est
Visibilitat 10 km o més
Escasses núvols a una alçada de 1500 ft
Núvols disperses a una alçada de 3000 ft
Evolucionant progressivament
l' 23 a les 00 UTC al 23 a les 03 UTC
Vent 12 kt del Nord
Evolucionant progressivament
l' 23 a les 12 UTC al 23 a les 15 UTC
Vent 4 kt del Est

TAF: RJNK 221105Z 2212/2318 08004KT 9999 FEW015 SCT030 BECMG 2300/2303 01012KT BECMG 2312/2315 08004KT

Observacions i pronòstics meteorològics de més de 4000 aeroports (METAR i TAF).

Les estacions disponibles són els punts grocs i vermells al mapa.

Posi el ratolí al punt desitjat per veure el nom de l'estació.

Feu clic per veure les observacions i els pronòstics meteorològics.

Per canviar el mapa: feu clic els botons verds amb una creu de color negre per apropar; al botó verd amb un guió per allunyar la imatge; o en les fletxes verdes per a mapes adjacents.


METAR-TAF: